createdAt,value
2023-01-19T00:00:59.976Z,5.13
2023-01-19T00:03:28.215Z,1.63
2023-01-19T00:05:56.230Z,3.00
2023-01-19T00:08:24.192Z,2.10
2023-01-19T00:10:52.652Z,6.20
2023-01-19T00:13:20.664Z,4.83
2023-01-19T00:15:50.068Z,4.87
2023-01-19T00:18:18.289Z,5.63
2023-01-19T00:20:46.896Z,5.60
2023-01-19T00:23:15.376Z,2.53
2023-01-19T00:25:43.831Z,3.17
2023-01-19T00:28:12.769Z,3.77
2023-01-19T00:30:42.041Z,4.00
2023-01-19T00:33:13.977Z,9.40
2023-01-19T00:35:43.571Z,6.87
2023-01-19T00:38:12.588Z,12.27
2023-01-19T00:40:40.775Z,7.53
2023-01-19T00:43:07.952Z,5.87
2023-01-19T00:45:38.408Z,8.17
2023-01-19T00:48:07.081Z,8.80
2023-01-19T00:50:36.462Z,8.43
2023-01-19T00:53:04.465Z,5.93
2023-01-19T00:55:33.440Z,4.00
2023-01-19T00:58:02.777Z,8.80
2023-01-19T01:00:30.763Z,8.03
2023-01-19T01:02:59.279Z,9.90
2023-01-19T01:05:27.549Z,4.50
2023-01-19T01:07:56.967Z,8.07
2023-01-19T01:10:27.129Z,9.40
2023-01-19T01:12:57.590Z,1.47
2023-01-19T01:15:43.680Z,11.90
2023-01-19T01:18:11.663Z,6.30
2023-01-19T01:20:39.703Z,8.93
2023-01-19T01:23:09.185Z,4.87
2023-01-19T01:25:37.773Z,3.13
2023-01-19T01:28:08.669Z,2.87
2023-01-19T01:30:39.962Z,7.40
2023-01-19T01:33:08.213Z,6.03
2023-01-19T01:35:36.211Z,3.57
2023-01-19T01:38:04.183Z,6.00
2023-01-19T01:40:33.559Z,6.93
2023-01-19T01:43:02.926Z,5.77
2023-01-19T01:45:34.640Z,11.53
2023-01-19T01:48:07.512Z,4.43
2023-01-19T01:50:38.787Z,6.03
2023-01-19T01:53:11.988Z,8.23
2023-01-19T01:55:48.044Z,8.97
2023-01-19T01:58:17.371Z,10.33
2023-01-19T02:01:03.413Z,7.30
2023-01-19T02:03:33.090Z,6.97
2023-01-19T02:06:04.366Z,7.63
2023-01-19T02:08:53.925Z,4.47
2023-01-19T02:11:41.611Z,6.37
2023-01-19T02:14:09.808Z,5.73
2023-01-19T02:16:38.647Z,1.97
2023-01-19T02:19:08.237Z,9.33
2023-01-19T02:21:43.218Z,4.43
2023-01-19T02:24:12.903Z,10.77
2023-01-19T02:26:43.756Z,2.27
2023-01-19T02:29:14.292Z,2.50
2023-01-19T02:31:42.681Z,2.90
2023-01-19T02:34:12.853Z,1.80
2023-01-19T02:36:46.272Z,1.57
2023-01-19T02:39:19.463Z,2.80
2023-01-19T02:41:52.664Z,2.47
2023-01-19T02:44:22.316Z,2.53
2023-01-19T02:46:50.657Z,2.20
2023-01-19T02:49:18.561Z,7.13
2023-01-19T02:51:46.835Z,7.83
2023-01-19T02:54:38.224Z,4.60
2023-01-19T02:57:32.666Z,7.00
2023-01-19T03:00:10.810Z,3.50
2023-01-19T03:02:51.048Z,6.37
2023-01-19T03:05:53.007Z,7.27
2023-01-19T03:08:34.134Z,5.93
2023-01-19T03:11:05.601Z,8.97
2023-01-19T03:13:43.154Z,11.50
2023-01-19T03:16:17.402Z,14.33
2023-01-19T03:18:50.711Z,9.67
2023-01-19T03:21:20.583Z,14.23
2023-01-19T03:23:50.829Z,12.40
2023-01-19T03:26:26.160Z,16.47
2023-01-19T03:28:56.704Z,10.60
2023-01-19T03:31:27.461Z,19.07
2023-01-19T03:33:58.261Z,15.33
2023-01-19T03:36:31.779Z,11.97
2023-01-19T03:39:03.444Z,28.77
2023-01-19T03:41:35.219Z,16.07
2023-01-19T03:44:05.629Z,14.97
2023-01-19T03:46:35.057Z,18.93
2023-01-19T03:49:03.455Z,15.03
2023-01-19T03:51:31.629Z,15.17
2023-01-19T03:54:01.317Z,28.97
2023-01-19T03:56:29.284Z,19.10
2023-01-19T03:58:58.839Z,17.77
2023-01-19T04:01:27.005Z,16.63
2023-01-19T04:03:55.038Z,15.63
2023-01-19T04:06:23.384Z,14.03
2023-01-19T04:08:52.829Z,19.30
2023-01-19T04:11:20.997Z,16.47
2023-01-19T04:13:49.102Z,24.30
2023-01-19T04:16:20.699Z,16.20
2023-01-19T04:18:49.322Z,15.07
2023-01-19T04:21:17.835Z,19.97
2023-01-19T04:23:46.035Z,18.13
2023-01-19T04:26:14.267Z,14.43
2023-01-19T04:28:42.664Z,15.43
2023-01-19T04:31:10.739Z,18.40
2023-01-19T04:33:40.063Z,18.23
2023-01-19T04:36:08.745Z,14.80
2023-01-19T04:38:37.061Z,15.80
2023-01-19T04:41:05.205Z,17.30
2023-01-19T04:43:33.927Z,24.63
2023-01-19T04:46:02.197Z,21.33
2023-01-19T04:48:30.151Z,19.37
2023-01-19T04:50:59.531Z,19.40
2023-01-19T04:53:27.514Z,23.27
2023-01-19T04:55:56.013Z,24.23
2023-01-19T04:58:23.975Z,21.27
2023-01-19T05:00:53.124Z,20.13
2023-01-19T05:03:21.520Z,13.60
2023-01-19T05:05:49.571Z,17.30
2023-01-19T05:08:18.946Z,15.97
2023-01-19T05:10:46.972Z,11.97
2023-01-19T05:13:15.149Z,17.93
2023-01-19T05:15:43.106Z,11.87
2023-01-19T05:18:11.252Z,16.93
2023-01-19T05:20:39.611Z,12.47
2023-01-19T05:23:07.812Z,17.23
2023-01-19T05:25:37.262Z,15.60
2023-01-19T05:28:05.687Z,18.43
2023-01-19T05:30:33.720Z,11.47
2023-01-19T05:33:02.077Z,18.67
2023-01-19T05:35:36.005Z,20.23
2023-01-19T05:38:04.990Z,18.30
2023-01-19T05:40:33.342Z,11.73
2023-01-19T05:43:05.088Z,16.83
2023-01-19T05:45:33.730Z,10.83
2023-01-19T05:48:02.083Z,20.67
2023-01-19T05:50:30.063Z,11.23
2023-01-19T05:52:58.304Z,10.83
2023-01-19T05:55:27.510Z,13.13
2023-01-19T05:57:55.492Z,20.77
2023-01-19T06:00:25.790Z,13.47
2023-01-19T06:02:53.849Z,15.53
2023-01-19T06:05:22.011Z,13.30
2023-01-19T06:07:52.600Z,16.33
2023-01-19T06:10:20.808Z,17.77
2023-01-19T06:12:49.604Z,14.40
2023-01-19T06:15:18.032Z,9.00
2023-01-19T06:17:47.359Z,17.27
2023-01-19T06:20:15.638Z,19.87
2023-01-19T06:22:43.779Z,11.00
2023-01-19T06:25:11.964Z,13.77
2023-01-19T06:27:40.911Z,13.20
2023-01-19T06:30:10.561Z,9.23
2023-01-19T06:32:38.651Z,7.03
2023-01-19T06:35:08.919Z,13.23
2023-01-19T06:37:37.226Z,23.27
2023-01-19T06:40:06.134Z,12.33
2023-01-19T06:42:34.379Z,14.37
2023-01-19T06:45:02.396Z,20.80
2023-01-19T06:47:30.453Z,10.57
2023-01-19T06:49:58.446Z,13.97
2023-01-19T06:52:28.532Z,14.23
2023-01-19T06:54:56.810Z,18.60
2023-01-19T06:57:25.898Z,11.57
2023-01-19T06:59:54.041Z,14.87
2023-01-19T07:02:26.585Z,14.90
2023-01-19T07:04:56.512Z,11.63
2023-01-19T07:07:24.544Z,10.40
2023-01-19T07:09:54.390Z,11.23
2023-01-19T07:12:22.590Z,8.13
2023-01-19T07:14:50.638Z,13.77
2023-01-19T07:17:18.622Z,9.97
2023-01-19T07:19:48.160Z,12.80
2023-01-19T07:22:16.126Z,15.80
2023-01-19T07:24:44.301Z,12.43
2023-01-19T07:27:16.899Z,15.33
2023-01-19T07:29:44.881Z,10.60
2023-01-19T07:32:13.538Z,9.33
2023-01-19T07:34:41.555Z,14.47
2023-01-19T07:37:09.529Z,18.17
2023-01-19T07:39:37.636Z,18.33
2023-01-19T07:42:05.990Z,14.90
2023-01-19T07:44:35.333Z,8.47
2023-01-19T07:47:06.200Z,14.90
2023-01-19T07:49:35.484Z,9.70
2023-01-19T07:52:03.479Z,11.87
2023-01-19T07:54:31.471Z,13.87
2023-01-19T07:57:00.712Z,16.03
2023-01-19T07:59:30.254Z,9.70
2023-01-19T08:02:00.395Z,12.07
2023-01-19T08:04:29.268Z,9.33
2023-01-19T08:06:57.682Z,12.37
2023-01-19T08:09:25.723Z,17.60
2023-01-19T08:11:54.071Z,9.23
2023-01-19T08:14:22.009Z,9.07
2023-01-19T08:16:50.012Z,10.50
2023-01-19T08:19:20.419Z,9.60
2023-01-19T08:21:48.677Z,14.60
2023-01-19T08:24:21.308Z,12.40
2023-01-19T08:26:49.607Z,9.00
2023-01-19T08:29:17.570Z,11.00
2023-01-19T08:31:45.826Z,12.23
2023-01-19T08:34:13.977Z,10.50
2023-01-19T08:36:43.604Z,12.20
2023-01-19T08:39:13.209Z,10.37
2023-01-19T08:41:41.415Z,6.97
2023-01-19T08:44:09.438Z,13.83
2023-01-19T08:46:37.550Z,10.80
2023-01-19T08:49:05.588Z,12.57
2023-01-19T08:51:34.004Z,5.80
2023-01-19T08:54:03.375Z,6.97
2023-01-19T08:56:31.702Z,17.07
2023-01-19T08:59:09.227Z,4.17
2023-01-19T09:01:38.602Z,6.23
2023-01-19T09:04:07.143Z,9.60
2023-01-19T09:06:37.371Z,10.27
2023-01-19T09:09:06.940Z,7.53
2023-01-19T09:11:35.237Z,10.90
2023-01-19T09:14:05.728Z,7.97
2023-01-19T09:16:33.839Z,5.97
2023-01-19T09:19:01.870Z,10.27
2023-01-19T09:21:30.092Z,10.87
2023-01-19T09:23:58.237Z,12.23
2023-01-19T09:26:27.645Z,5.97
2023-01-19T09:28:55.653Z,9.70
2023-01-19T09:31:24.361Z,5.77
2023-01-19T09:33:52.490Z,11.53
2023-01-19T09:36:20.522Z,7.50
2023-01-19T09:38:48.584Z,5.73
2023-01-19T09:41:22.313Z,5.67
2023-01-19T09:43:55.989Z,4.53
2023-01-19T09:46:29.699Z,7.40
2023-01-19T09:48:59.516Z,6.00
2023-01-19T09:51:29.388Z,3.80
2023-01-19T09:54:06.534Z,5.43
2023-01-19T09:56:34.830Z,12.27
2023-01-19T09:59:16.357Z,4.20
2023-01-19T10:01:52.985Z,5.90
2023-01-19T10:04:37.476Z,6.70
2023-01-19T10:07:12.821Z,3.93
2023-01-19T10:10:06.255Z,6.20
2023-01-19T10:12:47.589Z,8.77
2023-01-19T10:15:27.264Z,2.00
2023-01-19T10:18:09.901Z,5.20
2023-01-19T10:20:41.604Z,6.47
2023-01-19T10:23:33.981Z,10.43
2023-01-19T10:26:07.360Z,5.27
2023-01-19T10:28:37.395Z,9.60
2023-01-19T10:31:09.569Z,3.97
2023-01-19T10:33:37.958Z,6.90
2023-01-19T10:36:07.326Z,5.83
2023-01-19T10:38:39.571Z,6.37
2023-01-19T10:41:14.717Z,7.60
2023-01-19T10:43:44.748Z,0.97
2023-01-19T10:46:36.069Z,4.60
2023-01-19T10:49:04.513Z,4.03
2023-01-19T10:51:32.575Z,4.23
2023-01-19T10:54:03.224Z,1.00
2023-01-19T10:56:34.313Z,7.73
2023-01-19T10:59:04.852Z,4.30
2023-01-19T11:01:37.377Z,3.17
2023-01-19T11:04:23.675Z,3.63
2023-01-19T11:06:51.930Z,3.50
2023-01-19T11:09:20.845Z,3.43
2023-01-19T11:11:51.509Z,5.40
2023-01-19T11:14:21.576Z,5.20
2023-01-19T11:16:53.869Z,5.40
2023-01-19T11:19:27.435Z,4.33
2023-01-19T11:22:11.831Z,9.47
2023-01-19T11:24:40.932Z,5.67
2023-01-19T11:27:08.990Z,2.03
2023-01-19T11:29:38.965Z,2.30
2023-01-19T11:32:22.598Z,4.43
2023-01-19T11:34:51.055Z,3.37
2023-01-19T11:37:34.722Z,2.93
2023-01-19T11:40:05.371Z,5.43
2023-01-19T11:42:37.452Z,8.23
2023-01-19T11:45:11.768Z,3.90
2023-01-19T11:47:45.102Z,8.33
2023-01-19T11:50:23.536Z,4.17
2023-01-19T11:52:55.036Z,3.43
2023-01-19T11:55:29.770Z,2.57
2023-01-19T11:57:57.789Z,2.53
2023-01-19T12:00:29.689Z,3.47
2023-01-19T12:03:11.038Z,3.30
2023-01-19T12:05:42.907Z,2.77
2023-01-19T12:08:15.788Z,5.93
2023-01-19T12:10:47.784Z,3.37
2023-01-19T12:13:21.635Z,6.03
2023-01-19T12:15:53.357Z,4.47
2023-01-19T12:18:25.441Z,4.50
2023-01-19T12:20:55.385Z,5.03
2023-01-19T12:23:32.859Z,6.60
2023-01-19T12:26:17.475Z,2.10
2023-01-19T12:28:48.400Z,5.57
2023-01-19T12:31:18.284Z,1.80
2023-01-19T12:33:48.394Z,6.03
2023-01-19T12:36:38.643Z,3.93
2023-01-19T12:39:14.276Z,5.63
2023-01-19T12:41:43.434Z,5.07
2023-01-19T12:44:23.356Z,5.50
2023-01-19T12:46:55.687Z,4.77
2023-01-19T12:49:31.258Z,1.87
2023-01-19T12:52:21.450Z,3.83
2023-01-19T12:54:58.446Z,3.60
2023-01-19T12:57:31.376Z,5.33
2023-01-19T13:00:01.564Z,4.20
2023-01-19T13:02:45.262Z,2.67
2023-01-19T13:05:52.485Z,3.60
2023-01-19T13:08:24.360Z,2.07
2023-01-19T13:11:18.076Z,4.73
2023-01-19T13:14:07.281Z,4.13
2023-01-19T13:16:59.790Z,4.53
2023-01-19T13:19:50.436Z,9.87
2023-01-19T13:23:04.675Z,3.83
2023-01-19T13:25:36.632Z,4.63
2023-01-19T13:28:12.071Z,6.03
2023-01-19T13:30:52.608Z,3.70
2023-01-19T13:33:23.543Z,2.50
2023-01-19T13:35:58.685Z,5.27
2023-01-19T13:38:28.417Z,2.97
2023-01-19T13:41:01.889Z,2.57
2023-01-19T13:43:33.836Z,2.80
2023-01-19T13:46:03.590Z,5.40
2023-01-19T13:48:33.610Z,4.57
2023-01-19T13:51:06.392Z,3.87
2023-01-19T13:53:36.542Z,4.50
2023-01-19T13:56:23.568Z,4.87
2023-01-19T13:59:05.581Z,6.83
2023-01-19T14:01:34.050Z,4.97
2023-01-19T14:04:02.204Z,4.10
2023-01-19T14:06:35.702Z,4.43
2023-01-19T14:09:16.529Z,5.10
2023-01-19T14:11:47.182Z,3.27
2023-01-19T14:14:25.883Z,3.60
2023-01-19T14:16:54.392Z,4.43
2023-01-19T14:19:22.886Z,2.50
2023-01-19T14:22:06.602Z,2.77
2023-01-19T14:24:34.940Z,1.67
2023-01-19T14:27:24.346Z,1.80
2023-01-19T14:29:54.694Z,6.33
2023-01-19T14:32:24.565Z,3.27
2023-01-19T14:35:16.251Z,2.23
2023-01-19T14:37:48.772Z,4.23
2023-01-19T14:40:19.918Z,1.90
2023-01-19T14:42:54.230Z,2.33
2023-01-19T14:45:24.228Z,2.57
2023-01-19T14:47:57.707Z,5.20
2023-01-19T14:50:35.342Z,7.77
2023-01-19T14:53:05.509Z,6.17
2023-01-19T14:55:37.415Z,3.33
2023-01-19T14:58:12.294Z,6.17
2023-01-19T15:00:40.382Z,5.53
2023-01-19T15:03:09.874Z,3.13
2023-01-19T15:05:38.317Z,2.87
2023-01-19T15:08:07.123Z,4.23
2023-01-19T15:10:36.879Z,5.20
2023-01-19T15:13:05.624Z,3.93
2023-01-19T15:15:36.076Z,8.77
2023-01-19T15:18:06.150Z,6.17
2023-01-19T15:20:34.155Z,1.90
2023-01-19T15:23:02.125Z,5.43
2023-01-19T15:25:31.497Z,6.23
2023-01-19T15:28:00.865Z,6.53
2023-01-19T15:30:31.251Z,2.07
2023-01-19T15:33:02.071Z,6.30
2023-01-19T15:35:30.009Z,5.73
2023-01-19T15:37:58.093Z,4.93
2023-01-19T15:40:26.202Z,5.20
2023-01-19T15:42:54.318Z,3.57
2023-01-19T15:45:34.371Z,4.40
2023-01-19T15:48:05.594Z,6.37
2023-01-19T15:50:34.513Z,3.57
2023-01-19T15:53:02.728Z,5.33
2023-01-19T15:55:30.748Z,5.00
2023-01-19T15:58:01.614Z,6.57
2023-01-19T16:00:30.555Z,4.93
2023-01-19T16:02:58.971Z,6.13
2023-01-19T16:05:41.933Z,5.43
2023-01-19T16:08:11.223Z,4.73
2023-01-19T16:10:39.525Z,4.97
2023-01-19T16:13:07.628Z,13.07
2023-01-19T16:15:36.809Z,6.10
2023-01-19T16:18:05.410Z,6.47
2023-01-19T16:20:35.188Z,13.07
2023-01-19T16:23:14.539Z,5.17
2023-01-19T16:25:43.471Z,2.77
2023-01-19T16:28:11.463Z,2.80
2023-01-19T16:30:39.468Z,4.00
2023-01-19T16:33:08.347Z,2.07
2023-01-19T16:35:37.745Z,3.23
2023-01-19T16:38:05.708Z,2.93
2023-01-19T16:40:33.661Z,3.73
2023-01-19T16:43:01.665Z,1.77
2023-01-19T16:45:29.672Z,3.23
2023-01-19T16:47:57.646Z,4.50
2023-01-19T16:50:25.643Z,3.83
2023-01-19T16:52:59.023Z,1.27
2023-01-19T16:55:27.272Z,1.70
2023-01-19T16:57:56.756Z,1.57
2023-01-19T17:00:25.080Z,1.87
2023-01-19T17:02:53.215Z,1.83
2023-01-19T17:05:21.221Z,2.00
2023-01-19T17:07:49.230Z,2.43
2023-01-19T17:10:19.148Z,2.90
2023-01-19T17:12:47.104Z,3.53
2023-01-19T17:15:15.205Z,1.30
2023-01-19T17:17:43.266Z,2.43
2023-01-19T17:20:12.487Z,2.67
2023-01-19T17:22:40.637Z,2.40
2023-01-19T17:25:09.523Z,2.53
2023-01-19T17:27:38.865Z,1.77
2023-01-19T17:30:07.605Z,3.73
2023-01-19T17:32:35.750Z,1.33
2023-01-19T17:35:03.818Z,1.50
2023-01-19T17:37:31.991Z,1.97
2023-01-19T17:39:59.959Z,2.10
2023-01-19T17:42:27.990Z,1.27
2023-01-19T17:44:58.004Z,4.07
2023-01-19T17:47:26.086Z,3.27
2023-01-19T17:49:54.357Z,2.83
2023-01-19T17:52:22.552Z,4.27
2023-01-19T17:54:51.142Z,3.17
2023-01-19T17:57:19.655Z,3.70
2023-01-19T17:59:48.647Z,5.10
2023-01-19T18:02:18.162Z,5.87
2023-01-19T18:04:46.229Z,3.30
2023-01-19T18:07:14.164Z,3.93
2023-01-19T18:09:44.586Z,8.23
2023-01-19T18:12:13.421Z,6.90
2023-01-19T18:14:41.571Z,5.50
2023-01-19T18:17:10.007Z,4.47
2023-01-19T18:19:39.614Z,7.23
2023-01-19T18:22:07.712Z,5.80
2023-01-19T18:24:36.040Z,3.90
2023-01-19T18:27:04.025Z,5.80
2023-01-19T18:29:32.693Z,5.53
2023-01-19T18:32:00.839Z,3.83
2023-01-19T18:34:29.162Z,3.07
2023-01-19T18:36:58.555Z,4.27
2023-01-19T18:39:26.597Z,7.60
2023-01-19T18:41:54.565Z,8.60
2023-01-19T18:44:23.046Z,5.53
2023-01-19T18:46:52.038Z,7.53
2023-01-19T18:49:20.069Z,4.40
2023-01-19T18:51:48.050Z,6.47
2023-01-19T18:54:17.542Z,2.83
2023-01-19T18:56:45.825Z,8.27
2023-01-19T18:59:14.548Z,7.33
2023-01-19T19:01:42.904Z,4.93
2023-01-19T19:04:33.805Z,4.70
2023-01-19T19:07:01.940Z,6.50
2023-01-19T19:09:31.482Z,3.30
2023-01-19T19:12:02.557Z,7.27
2023-01-19T19:14:30.514Z,5.30
2023-01-19T19:16:59.211Z,6.37
2023-01-19T19:19:27.248Z,4.00
2023-01-19T19:21:56.989Z,6.40
2023-01-19T19:24:25.113Z,4.77
2023-01-19T19:26:56.154Z,6.53
2023-01-19T19:29:24.446Z,8.40
2023-01-19T19:31:52.462Z,7.93
2023-01-19T19:34:20.992Z,6.60
2023-01-19T19:36:51.034Z,4.50
2023-01-19T19:39:19.074Z,4.50
2023-01-19T19:41:47.250Z,4.47
2023-01-19T19:44:17.471Z,5.47
2023-01-19T19:46:47.813Z,6.67
2023-01-19T19:49:17.833Z,3.00
2023-01-19T19:51:45.938Z,5.73
2023-01-19T19:54:14.045Z,3.07
2023-01-19T19:56:42.636Z,4.23
2023-01-19T19:59:10.676Z,3.43
2023-01-19T20:01:40.163Z,4.33
2023-01-19T20:04:10.900Z,3.43
2023-01-19T20:06:41.518Z,5.27
2023-01-19T20:09:12.840Z,2.77
2023-01-19T20:11:41.822Z,8.33
2023-01-19T20:14:11.305Z,4.53
2023-01-19T20:16:41.530Z,2.40
2023-01-19T20:19:09.802Z,2.80
2023-01-19T20:21:39.360Z,4.83
2023-01-19T20:24:11.672Z,5.37
2023-01-19T20:26:42.642Z,3.67
2023-01-19T20:29:11.837Z,4.60
2023-01-19T20:31:47.566Z,6.77
2023-01-19T20:34:36.305Z,5.03
2023-01-19T20:37:06.118Z,4.40
2023-01-19T20:39:36.505Z,6.67
2023-01-19T20:42:05.048Z,5.03
2023-01-19T20:44:33.067Z,4.07
2023-01-19T20:47:03.825Z,5.47
2023-01-19T20:49:34.242Z,5.40
2023-01-19T20:52:02.514Z,4.83
2023-01-19T20:54:31.606Z,4.73
2023-01-19T20:57:00.114Z,6.03
2023-01-19T20:59:28.658Z,6.03
2023-01-19T21:01:57.135Z,6.13
2023-01-19T21:04:27.035Z,6.87
2023-01-19T21:06:55.059Z,6.07
2023-01-19T21:09:23.168Z,4.77
2023-01-19T21:11:51.712Z,8.63
2023-01-19T21:14:19.928Z,3.80
2023-01-19T21:16:47.924Z,9.67
2023-01-19T21:19:17.459Z,8.73
2023-01-19T21:21:46.741Z,6.10
2023-01-19T21:24:15.042Z,9.20
2023-01-19T21:26:43.403Z,4.83
2023-01-19T21:29:14.070Z,5.17
2023-01-19T21:31:42.506Z,8.07
2023-01-19T21:34:10.773Z,5.93
2023-01-19T21:36:38.957Z,5.40
2023-01-19T21:39:09.945Z,7.30
2023-01-19T21:41:40.208Z,5.90
2023-01-19T21:44:08.351Z,3.10
2023-01-19T21:46:37.372Z,4.40
2023-01-19T21:49:09.967Z,3.13
2023-01-19T21:51:40.340Z,7.33
2023-01-19T21:54:09.803Z,3.27
2023-01-19T21:56:39.307Z,3.60
2023-01-19T21:59:07.562Z,4.67
2023-01-19T22:01:37.293Z,3.43
2023-01-19T22:04:05.960Z,3.23
2023-01-19T22:06:34.358Z,8.60
2023-01-19T22:09:05.533Z,2.60
2023-01-19T22:11:34.968Z,4.57
2023-01-19T22:14:03.951Z,7.10
2023-01-19T22:16:32.295Z,4.50
2023-01-19T22:19:02.412Z,6.20
2023-01-19T22:21:32.991Z,4.10
2023-01-19T22:24:02.573Z,9.57
2023-01-19T22:26:33.079Z,7.70
2023-01-19T22:29:11.203Z,4.57
2023-01-19T22:31:39.965Z,5.30
2023-01-19T22:34:10.342Z,2.97
2023-01-19T22:36:39.834Z,2.53
2023-01-19T22:39:10.978Z,3.60
2023-01-19T22:41:40.682Z,4.83
2023-01-19T22:44:12.922Z,6.20
2023-01-19T22:46:41.122Z,8.50
2023-01-19T22:49:09.578Z,7.93
2023-01-19T22:51:44.326Z,6.53
2023-01-19T22:54:12.996Z,8.57
2023-01-19T22:56:42.125Z,8.33
2023-01-19T22:59:11.598Z,11.13
2023-01-19T23:01:41.498Z,12.13
2023-01-19T23:04:12.856Z,12.30
2023-01-19T23:06:40.872Z,10.47
2023-01-19T23:09:11.747Z,11.77
2023-01-19T23:11:41.702Z,10.13
2023-01-19T23:14:14.816Z,13.23
2023-01-19T23:16:43.175Z,12.60
2023-01-19T23:19:12.914Z,14.23
2023-01-19T23:21:41.663Z,17.23
2023-01-19T23:24:10.362Z,22.57
2023-01-19T23:26:38.931Z,21.20
2023-01-19T23:29:08.769Z,22.90
2023-01-19T23:31:39.933Z,20.10
2023-01-19T23:34:10.485Z,22.50
2023-01-19T23:36:40.092Z,25.93
2023-01-19T23:39:11.243Z,24.20
2023-01-19T23:41:43.004Z,29.63
2023-01-19T23:44:11.519Z,26.40
2023-01-19T23:46:41.166Z,25.00
2023-01-19T23:49:09.460Z,23.63
2023-01-19T23:51:38.497Z,28.20
2023-01-19T23:54:06.564Z,25.93
2023-01-19T23:56:37.003Z,26.17
2023-01-19T23:59:06.417Z,25.20
